Overview Statistics Trail Chart Weather Telemetry Raw packets
 

This is the latest recevied weather packets stored in our database for station/object N7IGG. If no packets are shown the sender has not sent any weather packets the latest 10 day(s).

<< 1 2 3 4 5 >>
Time Temp. Humidity Pressure Rain* Wind** Luminosity Snow
1778201808 19.44° C 60% 1017.7 hPa 0 mm - 175 W/m² -
1778201504 19.44° C 57% 1017.8 hPa 0 mm - 241 W/m² -
1778201200 19.44° C 61% 1017.8 hPa 0 mm - 226 W/m² -
1778200896 19.44° C 60% 1017.8 hPa 0 mm - 246 W/m² -
1778200593 18.33° C 61% 1018 hPa 0 mm - 246 W/m² -
1778200291 18.89° C 59% 1017.9 hPa 0 mm - 246 W/m² -
1778199987 19.44° C 58% 1018 hPa 0 mm - 248 W/m² -
1778199685 19.44° C 59% 1018.1 hPa 0 mm - 296 W/m² -
1778199380 19.44° C 59% 1017.9 hPa 0 mm - 309 W/m² -
1778199076 18.89° C 61% 1018.1 hPa 0 mm - 330 W/m² -
1778198772 18.89° C 63% 1018.1 hPa 0 mm - 336 W/m² -
1778198470 18.89° C 61% 1018 hPa 0 mm - 357 W/m² -
1778198167 18.33° C 61% 1018.1 hPa 0 mm - 358 W/m² -
1778197864 18.33° C 61% 1018.1 hPa 0 mm - 314 W/m² -
1778197571 18.33° C 62% 1018.3 hPa 0 mm - 343 W/m² -
1778197257 18.33° C 63% 1018.3 hPa 0 mm - 335 W/m² -
1778196954 18.33° C 60% 1018.2 hPa 0 mm - 360 W/m² -
1778196653 17.78° C 65% 1018.1 hPa 0 mm - 373 W/m² -
1778196348 17.78° C 70% 1018.3 hPa 0 mm - 357 W/m² -
1778196046 18.33° C 68% 1018.5 hPa 0 mm - 345 W/m² -
1778195742 18.89° C 62% 1018.3 hPa 0 mm - 331 W/m² -
1778195439 18.89° C 60% 1018.4 hPa 0 mm - 390 W/m² -
1778195136 18.89° C 59% 1018.6 hPa 0 mm - 455 W/m² -
1778194833 18.89° C 59% 1018.4 hPa 0 mm - 500 W/m² -
1778194528 18.33° C 62% 1018.6 hPa 0 mm - 480 W/m² -

* Rain latest hour (hover to see other rain measurements)
** Current wind speed in m/s (hover to see current wind gust speed)